Time;durP1;ratioP1;P1;durP2;ratioP2;P2;SDS_P1;SDS_P2;PMS_P1;PMS_P2;Temp;Humidity;BMP_temperature;BMP_pressure;BME280_temperature;BME280_humidity;BME280_pressure;Samples;Min_cycle;Max_cycle;Signal;HPM_P1;HPM_P2
2024/04/11 00:00:24;;;;;;;0.80;0.80;;;;;;;10.38;74.00;97558.00;5233830;27;20011;-63
2024/04/11 00:02:51;;;;;;;0.80;0.80;;;;;;;10.18;74.54;97536.91;5231509;27;20018;-64
2024/04/11 00:05:20;;;;;;;0.80;0.80;;;;;;;9.78;74.30;97472.56;5233190;27;20078;-62
2024/04/11 00:07:47;;;;;;;0.80;0.80;;;;;;;10.32;74.58;97545.56;5231312;27;20504;-62
2024/04/11 00:10:14;;;;;;;0.80;0.80;;;;;;;10.23;75.08;97553.25;5231409;27;20351;-62
2024/04/11 00:12:41;;;;;;;0.70;0.70;;;;;;;10.29;75.41;97545.50;5231561;27;20015;-62
2024/04/11 00:15:08;;;;;;;0.73;0.73;;;;;;;10.06;75.28;97512.03;5234010;27;20086;-62
2024/04/11 00:17:35;;;;;;;0.80;0.80;;;;;;;10.02;74.75;97500.06;5234478;27;20011;-63
2024/04/11 00:20:03;;;;;;;0.70;0.70;;;;;;;10.10;76.18;97535.09;5232349;27;20007;-63
2024/04/11 00:22:31;;;;;;;0.80;0.80;;;;;;;10.15;75.53;97543.13;5238497;27;20010;-62
2024/04/11 00:24:57;;;;;;;0.80;0.80;;;;;;;9.97;77.10;97536.31;5266917;27;20017;-62
2024/04/11 00:27:24;;;;;;;0.80;0.80;;;;;;;9.91;77.50;97551.53;5266729;27;20453;-63
2024/04/11 00:29:51;;;;;;;0.70;0.70;;;;;;;9.71;78.42;97538.72;5256613;27;20552;-63
2024/04/11 00:32:18;;;;;;;0.70;0.70;;;;;;;9.81;78.35;97535.47;5232930;27;20021;-62
2024/04/11 00:34:45;;;;;;;0.80;0.80;;;;;;;9.85;77.78;97525.28;5232572;27;20368;-62
2024/04/11 00:37:12;;;;;;;0.80;0.80;;;;;;;9.57;76.95;97463.66;5232970;27;20081;-62
2024/04/11 00:39:39;;;;;;;0.70;0.70;;;;;;;9.93;77.38;97535.41;5232296;27;20011;-62
2024/04/11 00:42:10;;;;;;;0.75;0.75;;;;;;;9.43;78.25;97485.41;5232797;27;20014;-62
2024/04/11 00:44:39;;;;;;;0.80;0.80;;;;;;;9.78;77.93;97508.50;5232683;27;20007;-62
2024/04/11 00:47:09;;;;;;;0.80;0.80;;;;;;;9.66;78.21;97497.50;5232502;27;21263;-62
2024/04/11 00:49:38;;;;;;;0.70;0.70;;;;;;;9.87;77.84;97530.47;5232683;27;20470;-64
2024/04/11 00:52:07;;;;;;;0.75;0.75;;;;;;;9.81;78.05;97532.69;5232142;27;20033;-62
2024/04/11 00:54:35;;;;;;;0.70;0.70;;;;;;;8.88;78.67;97399.69;5233351;27;20803;-62
2024/04/11 00:57:07;;;;;;;0.70;0.70;;;;;;;8.91;78.44;97437.69;5229899;27;20003;-62
2024/04/11 00:59:44;;;;;;;0.80;0.80;;;;;;;9.56;78.44;97520.16;5243372;27;20011;-63
2024/04/11 01:02:12;;;;;;;0.70;0.70;;;;;;;9.14;79.03;97471.91;5230602;27;20003;-62
2024/04/11 01:04:39;;;;;;;0.80;0.80;;;;;;;9.51;79.12;97534.22;5232182;27;20011;-62
2024/04/11 01:07:09;;;;;;;0.70;0.70;;;;;;;9.51;79.21;97545.28;5232020;27;20010;-62
2024/04/11 01:09:43;;;;;;;0.70;0.70;;;;;;;9.47;80.11;97549.88;5230566;27;20023;-64
2024/04/11 01:12:14;;;;;;;0.70;0.70;;;;;;;9.08;79.38;97465.84;5238134;27;20014;-62
2024/04/11 01:14:43;;;;;;;0.70;0.70;;;;;;;9.55;79.39;97548.16;5253927;27;20477;-62
2024/04/11 01:17:15;;;;;;;0.70;0.70;;;;;;;9.57;78.46;97549.41;5231714;27;20535;-62
2024/04/11 01:19:44;;;;;;;0.70;0.70;;;;;;;9.62;78.66;97540.03;5232064;27;20043;-62
2024/04/11 01:22:11;;;;;;;0.70;0.70;;;;;;;9.47;78.45;97544.34;5232458;27;20023;-63
2024/04/11 01:24:42;;;;;;;0.70;0.70;;;;;;;8.88;78.46;97499.94;5264829;27;20021;-64
2024/04/11 01:27:10;;;;;;;0.70;0.70;;;;;;;7.14;78.99;97165.78;5263811;27;20236;-62
2024/04/11 01:29:38;;;;;;;0.60;0.60;;;;;;;9.15;78.97;97488.13;5257667;27;20478;-63
2024/04/11 01:32:06;;;;;;;0.70;0.70;;;;;;;9.36;79.34;97515.59;5231211;27;20003;-63
2024/04/11 01:34:34;;;;;;;0.70;0.70;;;;;;;9.47;79.06;97538.03;5233093;27;20085;-63
2024/04/11 01:37:01;;;;;;;0.70;0.70;;;;;;;9.40;79.53;97585.63;5233270;27;20039;-62
2024/04/11 01:39:28;;;;;;;0.63;0.63;;;;;;;9.28;79.77;97535.88;5230703;27;20003;-62
2024/04/11 01:41:55;;;;;;;0.70;0.70;;;;;;;9.31;79.70;97532.41;5230106;27;20031;-62
2024/04/11 01:44:22;;;;;;;0.70;0.70;;;;;;;9.46;78.48;97542.75;5231846;27;20021;-63
2024/04/11 01:46:50;;;;;;;0.70;0.70;;;;;;;9.13;78.79;97517.28;5231833;27;20094;-62
2024/04/11 01:49:17;;;;;;;0.70;0.70;;;;;;;9.40;78.63;97537.81;5231405;27;20007;-62
2024/04/11 01:51:44;;;;;;;0.70;0.70;;;;;;;9.41;79.07;97544.94;5201947;27;20003;-63
2024/04/11 01:54:14;;;;;;;0.70;0.70;;;;;;;9.39;79.61;97531.47;5231576;27;20029;-65
2024/04/11 01:56:41;;;;;;;0.70;0.70;;;;;;;9.32;80.97;97531.28;5229918;27;20035;-62
2024/04/11 01:59:08;;;;;;;0.70;0.70;;;;;;;9.30;79.91;97524.47;5231885;27;20019;-62
2024/04/11 02:01:37;;;;;;;0.60;0.60;;;;;;;8.71;81.42;97554.66;5230294;27;20003;-61
2024/04/11 02:04:05;;;;;;;0.60;0.60;;;;;;;8.87;81.14;97541.72;5230124;27;20011;-62
2024/04/11 02:06:34;;;;;;;0.70;0.70;;;;;;;8.93;82.30;97540.34;5229181;27;20012;-62
2024/04/11 02:09:09;;;;;;;0.70;0.70;;;;;;;8.93;83.06;97534.84;5230041;27;20081;-62
2024/04/11 02:11:41;;;;;;;0.60;0.60;;;;;;;9.07;82.04;97551.84;5234431;27;20034;-63
2024/04/11 02:14:08;;;;;;;0.60;0.60;;;;;;;9.02;82.03;97615.63;5235425;27;20338;-62
2024/04/11 02:16:36;;;;;;;0.70;0.70;;;;;;;8.74;80.75;97553.94;5234645;27;20026;-63
2024/04/11 02:19:06;;;;;;;0.70;0.70;;;;;;;8.57;81.85;97543.13;5233202;27;20002;-62
2024/04/11 02:21:34;;;;;;;0.68;0.68;;;;;;;8.32;83.23;97574.63;5234678;27;20466;-62
2024/04/11 02:24:01;;;;;;;0.60;0.60;;;;;;;8.26;82.22;97527.13;5260866;27;20012;-63
2024/04/11 02:26:32;;;;;;;0.60;0.60;;;;;;;8.47;83.19;97549.13;5260295;27;20368;-63
2024/04/11 02:28:59;;;;;;;0.70;0.70;;;;;;;8.60;83.28;97550.75;5234672;27;20537;-62
2024/04/11 02:31:26;;;;;;;0.68;0.68;;;;;;;8.01;83.65;97513.59;5240316;26;20035;-61
2024/04/11 02:33:55;;;;;;;0.70;0.70;;;;;;;8.43;83.20;97539.91;5233075;27;20007;-63
2024/04/11 02:36:22;;;;;;;0.60;0.60;;;;;;;8.26;84.46;97515.28;5232724;27;20393;-63
2024/04/11 02:38:49;;;;;;;0.60;0.60;;;;;;;6.90;87.57;97459.59;5232769;27;20007;-63
2024/04/11 02:41:16;;;;;;;0.60;0.60;;;;;;;7.65;89.57;97573.03;5234782;27;20013;-62
2024/04/11 02:43:43;;;;;;;0.60;0.60;;;;;;;7.92;88.48;97565.31;5233090;27;20035;-62
2024/04/11 02:46:15;;;;;;;0.60;0.60;;;;;;;8.03;89.20;97560.97;5234760;27;20012;-61
2024/04/11 02:48:43;;;;;;;0.60;0.60;;;;;;;7.90;88.85;97595.19;5234766;27;20011;-62
2024/04/11 02:51:13;;;;;;;0.52;0.52;;;;;;;6.80;91.87;97518.59;5234191;27;20007;-61
2024/04/11 02:53:41;;;;;;;0.60;0.60;;;;;;;7.56;88.48;97575.06;5234322;27;20525;-61
2024/04/11 02:56:09;;;;;;;0.60;0.60;;;;;;;7.41;88.76;97517.78;5234262;27;20347;-62
2024/04/11 02:58:37;;;;;;;0.60;0.60;;;;;;;7.52;87.28;97543.78;5234524;27;19999;-62
2024/04/11 03:01:09;;;;;;;0.60;0.60;;;;;;;7.91;87.47;97580.22;5231882;27;20003;-62
2024/04/11 03:03:37;;;;;;;0.50;0.50;;;;;;;7.96;88.25;97580.03;5234205;27;20478;-61
2024/04/11 03:06:12;;;;;;;0.60;0.60;;;;;;;7.22;88.63;97491.88;5207644;27;20407;-63
2024/04/11 03:08:42;;;;;;;0.60;0.60;;;;;;;8.10;86.98;97572.25;5200840;27;20507;-62
2024/04/11 03:11:11;;;;;;;0.60;0.60;;;;;;;7.96;87.93;97577.25;5200782;27;20019;-61
2024/04/11 03:13:39;;;;;;;0.60;0.60;;;;;;;8.00;87.77;97600.28;5200738;27;20007;-62
2024/04/11 03:16:14;;;;;;;0.60;0.60;;;;;;;7.77;89.50;97590.75;5200210;27;20004;-61
2024/04/11 03:18:41;;;;;;;0.60;0.60;;;;;;;7.98;88.93;97586.84;5200273;27;20018;-62
2024/04/11 03:21:09;;;;;;;0.60;0.60;;;;;;;7.54;87.86;97548.97;5198075;27;20450;-61
2024/04/11 03:23:36;;;;;;;0.60;0.60;;;;;;;6.80;89.72;97540.63;5220159;27;20047;-61
2024/04/11 03:26:04;;;;;;;0.60;0.60;;;;;;;7.15;89.27;97525.47;5234055;27;20022;-62
2024/04/11 03:28:31;;;;;;;0.52;0.52;;;;;;;7.30;89.80;97588.22;5234202;27;20021;-61
2024/04/11 03:31:08;;;;;;;0.60;0.60;;;;;;;7.44;90.11;97569.50;5207592;27;20011;-61
2024/04/11 03:33:35;;;;;;;0.50;0.50;;;;;;;7.30;89.17;97533.13;5200722;27;20004;-61
2024/04/11 03:36:12;;;;;;;0.53;0.53;;;;;;;7.91;88.24;97602.28;2408745;27;10001932;-61
2024/04/11 03:38:40;;;;;;;;;;;;;;;7.83;88.82;97606.75;5212665;27;20017;-62
2024/04/11 03:41:11;;;;;;;0.60;0.60;;;;;;;7.38;87.80;97568.06;5287913;26;20077;-61
2024/04/11 03:43:41;;;;;;;0.60;0.60;;;;;;;7.74;88.41;97603.28;5315444;26;20037;-61
2024/04/11 03:46:11;;;;;;;0.60;0.60;;;;;;;7.82;87.74;97629.16;5299167;27;20477;-64
2024/04/11 03:48:39;;;;;;;0.60;0.60;;;;;;;7.56;86.58;97619.16;5300471;26;20001;-63
2024/04/11 03:51:14;;;;;;;0.60;0.60;;;;;;;7.51;89.52;97616.59;5298415;26;20005;-62
2024/04/11 03:53:51;;;;;;;0.60;0.60;;;;;;;6.95;90.08;97592.38;5300849;26;20481;-62
2024/04/11 03:56:22;;;;;;;0.60;0.60;;;;;;;7.55;90.70;97628.59;5300869;26;20537;-62
2024/04/11 03:58:51;;;;;;;0.60;0.60;;;;;;;6.81;90.81;97608.31;5299622;27;20099;-61
2024/04/11 04:01:18;;;;;;;0.60;0.60;;;;;;;7.06;91.31;97593.59;5301054;26;20033;-62
2024/04/11 04:03:47;;;;;;;0.60;0.60;;;;;;;7.29;90.35;97641.75;5301868;26;20053;-62
2024/04/11 04:06:16;;;;;;;0.60;0.60;;;;;;;6.83;89.96;97644.59;5301371;26;20555;-62
2024/04/11 04:08:46;;;;;;;0.50;0.50;;;;;;;7.10;88.87;97627.59;5301597;26;20013;-61
2024/04/11 04:11:14;;;;;;;0.60;0.60;;;;;;;7.36;87.54;97664.06;5300842;26;20006;-62
2024/04/11 04:13:42;;;;;;;0.60;0.60;;;;;;;6.99;87.33;97576.78;5301238;26;20002;-62
2024/04/11 04:16:11;;;;;;;0.60;0.60;;;;;;;7.63;86.32;97658.00;5299216;27;20071;-62
2024/04/11 04:18:40;;;;;;;0.60;0.60;;;;;;;7.57;85.72;97664.09;5300784;26;20091;-63
2024/04/11 04:21:07;;;;;;;0.60;0.60;;;;;;;7.55;85.73;97638.78;5299018;27;20020;-63
2024/04/11 04:23:35;;;;;;;0.60;0.60;;;;;;;7.94;85.04;97662.31;5300151;26;20006;-63
2024/04/11 04:26:08;;;;;;;0.60;0.60;;;;;;;7.90;83.57;97658.63;5300465;26;20244;-62
2024/04/11 04:28:37;;;;;;;0.60;0.60;;;;;;;7.92;84.80;97681.16;5298372;27;20336;-63
2024/04/11 04:31:16;;;;;;;0.60;0.60;;;;;;;7.90;84.68;97683.44;5298952;27;20017;-64
2024/04/11 04:33:47;;;;;;;0.60;0.60;;;;;;;8.24;84.28;97681.22;5299208;26;20002;-63
2024/04/11 04:36:24;;;;;;;0.60;0.60;;;;;;;8.53;82.88;97683.03;5300096;26;20019;-63
2024/04/11 04:38:51;;;;;;;0.70;0.70;;;;;;;8.29;82.23;97638.78;5300738;26;19998;-62
2024/04/11 04:41:21;;;;;;;0.70;0.70;;;;;;;9.02;81.81;97693.00;5300913;26;20467;-62
2024/04/11 04:43:54;;;;;;;0.70;0.70;;;;;;;9.10;80.64;97694.84;5301288;26;20001;-64
2024/04/11 04:46:43;;;;;;;0.70;0.70;;;;;;;9.28;80.86;97701.75;5300152;26;20005;-62
2024/04/11 04:49:10;;;;;;;0.70;0.70;;;;;;;9.23;81.75;97713.06;5298717;27;20013;-63
2024/04/11 04:51:39;;;;;;;0.70;0.70;;;;;;;9.19;81.69;97645.78;5298431;27;20425;-63
2024/04/11 04:54:11;;;;;;;0.70;0.70;;;;;;;9.75;79.81;97694.56;5298682;27;20089;-63
2024/04/11 04:56:41;;;;;;;0.80;0.80;;;;;;;10.15;78.64;97708.41;5300576;26;20010;-62
2024/04/11 04:59:09;;;;;;;0.68;0.68;;;;;;;10.45;76.73;97713.28;5300537;26;20125;-63
2024/04/11 05:01:36;;;;;;;0.80;0.80;;;;;;;10.68;75.90;97700.44;5299502;26;20457;-62
2024/04/11 05:04:05;;;;;;;0.80;0.80;;;;;;;10.82;75.15;97704.75;5298029;27;20412;-62
2024/04/11 05:06:33;;;;;;;0.80;0.80;;;;;;;10.30;74.91;97594.16;5287794;26;20013;-65
2024/04/11 05:09:00;;;;;;;0.80;0.80;;;;;;;11.10;74.04;97711.03;5325962;26;20324;-62
2024/04/11 05:11:31;;;;;;;0.82;0.82;;;;;;;11.33;73.66;97715.63;5299506;26;20053;-64
2024/04/11 05:13:59;;;;;;;0.90;0.90;;;;;;;11.50;72.73;97714.44;5299446;26;20020;-64
2024/04/11 05:16:28;;;;;;;0.90;0.90;;;;;;;11.63;72.80;97718.75;5299852;26;20083;-64
2024/04/11 05:18:55;;;;;;;0.90;0.90;;;;;;;11.10;72.04;97622.31;5300386;26;20024;-63
2024/04/11 05:21:26;;;;;;;0.80;0.80;;;;;;;11.81;72.58;97719.94;5301141;26;20341;-63
2024/04/11 05:23:56;;;;;;;1.00;1.00;;;;;;;11.84;72.46;97730.34;5299251;26;20001;-63
2024/04/11 05:26:24;;;;;;;0.90;0.90;;;;;;;11.32;74.72;97729.81;5300094;26;20482;-63
2024/04/11 05:28:54;;;;;;;0.80;0.80;;;;;;;10.87;78.03;97741.34;5297805;27;20415;-63
2024/04/11 05:31:28;;;;;;;0.90;0.90;;;;;;;10.74;78.88;97720.41;5299598;26;20002;-62
2024/04/11 05:34:06;;;;;;;0.80;0.80;;;;;;;10.15;82.29;97681.56;5299851;26;20309;-62
2024/04/11 05:36:39;;;;;;;0.80;0.80;;;;;;;10.98;80.73;97744.41;5297578;27;20002;-63
2024/04/11 05:39:14;;;;;;;0.80;0.80;;;;;;;10.87;80.43;97752.44;5299689;26;20017;-63
2024/04/11 05:41:43;;;;;;;0.80;0.80;;;;;;;11.24;79.75;97744.72;5299066;26;20033;-64
2024/04/11 05:44:10;;;;;;;0.80;0.80;;;;;;;11.57;76.85;97743.16;5300319;26;20467;-63
2024/04/11 05:46:40;;;;;;;0.90;0.90;;;;;;;11.90;75.87;97745.56;5300825;27;20016;-64
2024/04/11 05:49:09;;;;;;;0.90;0.90;;;;;;;12.27;74.10;97749.56;5300710;27;20103;-63
2024/04/11 05:51:37;;;;;;;0.90;0.90;;;;;;;12.40;72.92;97748.25;5296181;27;20080;-64
2024/04/11 05:54:04;;;;;;;0.90;0.90;;;;;;;12.53;72.18;97730.28;5295726;26;20006;-62
2024/04/11 05:56:34;;;;;;;1.00;1.00;;;;;;;13.01;70.64;97756.69;5300213;26;20072;-63
2024/04/11 05:59:02;;;;;;;1.00;1.00;;;;;;;13.17;70.27;97755.38;5298823;27;20012;-63
2024/04/11 06:01:34;;;;;;;1.05;1.05;;;;;;;13.46;70.31;97765.84;5299655;27;20006;-62
2024/04/11 06:04:01;;;;;;;1.20;1.20;;;;;;;13.73;68.46;97755.56;5301878;26;20024;-64
2024/04/11 06:06:28;;;;;;;1.10;1.10;;;;;;;14.04;67.28;97760.81;5302153;26;20002;-65
2024/04/11 06:08:55;;;;;;;1.02;1.02;;;;;;;12.55;65.53;97516.72;5302148;26;20005;-67
2024/04/11 06:11:22;;;;;;;1.17;1.17;;;;;;;14.52;64.48;97764.69;5302480;26;20474;-62
2024/04/11 06:13:53;;;;;;;1.10;1.10;;;;;;;14.58;63.83;97726.94;5300980;26;20042;-69
2024/04/11 06:16:20;;;;;;;1.20;1.20;;;;;;;14.78;63.15;97717.19;5326550;26;20010;-69
2024/04/11 06:18:48;;;;;;;1.20;1.20;;;;;;;15.29;62.14;97762.81;5302713;26;20053;-71
2024/04/11 06:21:18;;;;;;;1.20;1.20;;;;;;;15.50;60.90;97732.34;5299598;27;20028;-67
2024/04/11 06:23:46;;;;;;;1.50;1.50;;;;;;;15.49;60.43;97700.00;5301609;26;20006;-69
2024/04/11 06:26:17;;;;;;;1.45;1.45;;;;;;;15.49;59.02;97660.13;5300929;26;20037;-66
2024/04/11 06:28:45;;;;;;;1.40;1.40;;;;;;;16.27;53.95;97732.91;5302094;26;20009;-72
2024/04/11 06:31:14;;;;;;;1.50;1.50;;;;;;;16.46;51.42;97727.06;5299038;27;20525;-64
2024/04/11 06:33:42;;;;;;;1.50;1.50;;;;;;;16.60;51.38;97721.53;5291227;26;20021;-76
2024/04/11 06:36:10;;;;;;;1.58;1.58;;;;;;;16.17;51.06;97638.59;5298648;27;20010;-70
2024/04/11 06:38:39;;;;;;;1.75;1.75;;;;;;;17.04;50.49;97742.88;5301721;26;20348;-63
2024/04/11 06:41:08;;;;;;;1.63;1.63;;;;;;;17.27;51.61;97771.31;5298494;27;20118;-66
2024/04/11 06:43:40;;;;;;;1.88;1.88;;;;;;;17.13;48.86;97729.28;5299081;27;20012;-65
2024/04/11 06:46:07;;;;;;;1.80;1.80;;;;;;;17.83;47.84;97768.63;5301817;26;20047;-70
2024/04/11 06:48:35;;;;;;;1.77;1.77;;;;;;;18.04;46.76;97768.63;5302054;26;20013;-69
2024/04/11 06:51:06;;;;;;;1.95;1.95;;;;;;;18.00;46.44;97734.19;5301403;26;20084;-62
2024/04/11 06:53:34;;;;;;;2.00;2.00;;;;;;;18.25;42.56;97729.34;5298251;27;20441;-61
2024/04/11 06:56:07;;;;;;;1.90;1.90;;;;;;;18.59;40.96;97755.72;5298341;27;20017;-64
2024/04/11 06:58:36;;;;;;;2.00;2.00;;;;;;;18.16;42.51;97726.16;5293273;27;20006;-63
2024/04/11 07:01:08;;;;;;;1.80;1.80;;;;;;;18.72;42.36;97773.72;5291076;27;20042;-69
2024/04/11 07:03:40;;;;;;;1.75;1.75;;;;;;;18.19;42.86;97778.63;5300067;26;20020;-63
2024/04/11 07:08:49;;;;;;;1.80;1.80;;;;;;;18.65;41.95;97748.47;5301262;26;20009;-63
2024/04/11 07:11:19;;;;;;;1.92;1.92;;;;;;;18.88;42.71;97788.13;5297433;27;20006;-63
2024/04/11 07:13:53;;;;;;;2.05;2.05;;;;;;;19.04;42.18;97787.66;5289092;27;20006;-63
2024/04/11 07:16:26;;;;;;;2.10;2.10;;;;;;;19.21;41.96;97781.94;5294052;27;20009;-73
2024/04/11 07:18:56;;;;;;;2.03;2.03;;;;;;;19.28;40.41;97786.78;5298596;26;20356;-69
2024/04/11 07:21:27;;;;;;;2.00;2.00;;;;;;;19.39;40.35;97782.66;5298825;26;20016;-61
2024/04/11 07:23:56;;;;;;;1.98;1.98;;;;;;;19.74;37.89;97786.47;5296252;27;20015;-70
2024/04/11 07:26:31;;;;;;;2.05;2.05;;;;;;;19.88;36.52;97780.75;5299900;26;20457;-61
2024/04/11 07:29:03;;;;;;;2.25;2.25;;;;;;;20.24;35.66;97787.72;5300590;26;20020;-72
2024/04/11 07:31:36;;;;;;;2.20;2.20;;;;;;;20.41;34.97;97775.47;5297997;27;20002;-65
2024/04/11 07:34:03;;;;;;;1.95;1.95;;;;;;;20.83;33.55;97794.75;5298814;27;20001;-67
2024/04/11 07:36:38;;;;;;;2.10;2.10;;;;;;;20.69;32.31;97741.41;5300825;26;20457;-63
2024/04/11 07:39:08;;;;;;;2.10;2.10;;;;;;;21.17;33.62;97789.94;5300414;26;20033;-60
2024/04/11 07:41:45;;;;;;;2.20;2.20;;;;;;;21.38;32.63;97794.50;5298505;27;20326;-76
2024/04/11 07:44:22;;;;;;;2.28;2.28;;;;;;;21.15;32.83;97769.03;5297936;27;20407;-61
2024/04/11 07:46:53;;;;;;;2.17;2.17;;;;;;;21.42;32.78;97801.69;5298789;27;20045;-60
2024/04/11 07:49:46;;;;;;;2.50;2.40;;;;;;;21.16;32.63;97793.97;5299873;26;20084;-61
2024/04/11 07:52:14;;;;;;;2.60;2.50;;;;;;;21.25;32.31;97790.63;5300477;26;20012;-62
2024/04/11 07:54:44;;;;;;;2.10;2.10;;;;;;;21.51;32.22;97816.06;5299646;26;20020;-62
2024/04/11 07:57:16;;;;;;;1.98;1.98;;;;;;;20.92;32.55;97716.16;5300178;26;20009;-65
2024/04/11 07:59:45;;;;;;;2.17;2.17;;;;;;;21.69;32.30;97804.53;5298129;27;20016;-63
2024/04/11 08:02:14;;;;;;;2.10;2.10;;;;;;;21.36;30.90;97814.66;5288016;26;20869;-65
2024/04/11 08:04:42;;;;;;;2.28;2.28;;;;;;;21.22;31.02;97758.47;5294738;27;20001;-63
2024/04/11 08:07:09;;;;;;;2.50;2.40;;;;;;;21.42;30.83;97801.69;5299456;26;20346;-63
2024/04/11 08:09:44;;;;;;;2.15;2.15;;;;;;;21.31;30.89;97795.38;5299888;26;20377;-63
2024/04/11 08:12:14;;;;;;;2.70;2.60;;;;;;;20.94;31.94;97725.78;5298708;27;20002;-67
2024/04/11 08:14:41;;;;;;;2.42;2.33;;;;;;;20.81;31.70;97695.78;5299756;26;20022;-66
2024/04/11 08:17:13;;;;;;;2.53;2.42;;;;;;;21.27;31.19;97749.56;5296532;27;20076;-62
2024/04/11 08:19:42;;;;;;;2.65;2.55;;;;;;;21.34;30.54;97759.94;5270347;27;20551;-67
2024/04/11 08:22:23;;;;;;;2.45;2.42;;;;;;;21.54;30.96;97815.22;5298641;27;20006;-65
2024/04/11 08:24:50;;;;;;;2.58;2.47;;;;;;;21.59;30.83;97775.25;5298598;26;20135;-61
2024/04/11 08:27:17;;;;;;;2.50;2.40;;;;;;;21.97;30.69;97799.28;5298043;27;19999;-67
2024/04/11 08:29:47;;;;;;;2.72;2.63;;;;;;;22.07;30.62;97803.97;5297124;27;20346;-61
2024/04/11 08:32:14;;;;;;;2.60;2.50;;;;;;;21.83;31.00;97816.44;5299613;26;20524;-63
2024/04/11 08:34:41;;;;;;;2.78;2.67;;;;;;;21.42;28.53;97739.66;5298085;26;20006;-71
2024/04/11 08:37:08;;;;;;;2.00;2.00;;;;;;;21.88;29.66;97813.13;5299246;27;20002;-66
2024/04/11 08:39:35;;;;;;;2.63;2.53;;;;;;;22.28;30.20;97808.47;5298291;27;20479;-64
2024/04/11 08:42:03;;;;;;;2.85;2.75;;;;;;;22.61;30.26;97826.47;5299042;27;20002;-66
2024/04/11 08:44:30;;;;;;;2.40;2.30;;;;;;;22.72;28.24;97807.31;5300834;26;20017;-65
2024/04/11 08:46:58;;;;;;;2.65;2.55;;;;;;;22.99;29.00;97820.09;5298909;27;20005;-63
2024/04/11 08:49:25;;;;;;;2.60;2.50;;;;;;;23.20;28.49;97821.72;5298398;27;20005;-61
2024/04/11 08:51:56;;;;;;;2.83;2.72;;;;;;;22.75;28.36;97724.50;5297739;27;20021;-62
2024/04/11 08:54:24;;;;;;;2.72;2.63;;;;;;;22.60;28.79;97788.16;5277481;26;20353;-62
2024/04/11 08:56:52;;;;;;;2.42;2.38;;;;;;;22.69;29.10;97775.06;5313436;26;20110;-61
2024/04/11 08:59:23;;;;;;;3.15;3.05;;;;;;;23.24;28.48;97819.59;5297185;27;20533;-62
2024/04/11 09:01:51;;;;;;;2.60;2.50;;;;;;;22.66;28.58;97739.22;5298572;26;20002;-61
2024/04/11 09:04:18;;;;;;;2.70;2.60;;;;;;;22.59;29.52;97783.75;5296669;27;20033;-61
2024/04/11 09:06:53;;;;;;;2.80;2.70;;;;;;;23.22;29.29;97822.09;5299365;26;20020;-66
2024/04/11 09:09:23;;;;;;;2.67;2.58;;;;;;;23.28;28.87;97821.16;5299358;26;20009;-61
2024/04/11 09:11:52;;;;;;;2.70;2.60;;;;;;;23.14;29.14;97792.34;5298422;26;20013;-61
2024/04/11 09:14:20;;;;;;;2.30;2.30;;;;;;;22.87;28.33;97817.13;5278242;26;20002;-66
2024/04/11 09:17:01;;;;;;;2.90;2.80;;;;;;;23.11;29.10;97822.28;5299618;27;20005;-66
2024/04/11 09:19:32;;;;;;;3.00;2.90;;;;;;;23.47;28.51;97833.69;5299917;27;20408;-62
2024/04/11 09:21:59;;;;;;;2.72;2.63;;;;;;;21.53;28.92;97525.25;5304387;26;20006;-66
2024/04/11 09:24:28;;;;;;;2.80;2.70;;;;;;;23.46;28.66;97809.47;5301210;27;19998;-66
2024/04/11 09:26:59;;;;;;;2.80;2.70;;;;;;;23.45;29.13;97819.19;5302294;26;20010;-62
2024/04/11 09:29:26;;;;;;;2.83;2.72;;;;;;;23.59;28.02;97787.75;5302716;27;20411;-66
2024/04/11 09:31:56;;;;;;;2.53;2.42;;;;;;;24.11;27.97;97816.09;5300249;27;20609;-61
2024/04/11 09:34:30;;;;;;;3.05;2.95;;;;;;;24.15;27.79;97794.97;5301726;27;20026;-64
2024/04/11 09:37:03;;;;;;;;;;;;;;;24.44;27.42;97807.16;5303324;26;20006;-62
2024/04/11 09:39:56;;;;;;;2.97;2.88;;;;;;;24.29;27.34;97799.47;5301976;27;19933;-66
2024/04/11 09:42:27;;;;;;;2.83;2.72;;;;;;;24.20;28.27;97819.91;5300958;27;20012;-66
2024/04/11 09:44:55;;;;;;;2.90;2.80;;;;;;;24.25;28.40;97764.78;5282515;26;20009;-62
2024/04/11 09:47:26;;;;;;;3.05;2.95;;;;;;;24.66;28.23;97830.09;5300496;27;20001;-62
2024/04/11 09:49:59;;;;;;;2.65;2.55;;;;;;;24.45;27.89;97752.13;5302499;26;20408;-61
2024/04/11 09:52:30;;;;;;;2.80;2.70;;;;;;;23.69;28.29;97795.22;5302335;27;20005;-62
2024/04/11 09:55:04;;;;;;;2.80;2.70;;;;;;;24.17;28.33;97815.13;5283618;27;20634;-66
2024/04/11 09:57:36;;;;;;;2.88;2.78;;;;;;;24.66;27.76;97819.56;5300310;27;20400;-63
2024/04/11 10:00:18;;;;;;;2.80;2.70;;;;;;;24.80;27.12;97790.06;5300260;27;20009;-63
2024/04/11 10:02:52;;;;;;;3.10;3.00;;;;;;;24.54;27.19;97731.63;5302007;27;20334;-62
2024/04/11 10:05:23;;;;;;;2.90;2.80;;;;;;;25.09;26.73;97803.00;5299630;27;20005;-65
2024/04/11 10:07:58;;;;;;;2.97;2.88;;;;;;;24.91;26.84;97802.69;5301942;26;20345;-66
2024/04/11 10:10:30;;;;;;;3.10;3.00;;;;;;;24.94;27.12;97812.34;5301310;26;20039;-66
2024/04/11 10:13:03;;;;;;;3.37;3.27;;;;;;;24.93;28.03;97811.56;5300356;26;20079;-62
2024/04/11 10:15:33;;;;;;;2.90;2.80;;;;;;;24.74;27.93;97808.84;5299302;27;20021;-65
2024/04/11 10:18:09;;;;;;;3.40;3.30;;;;;;;24.53;27.63;97762.00;5301384;26;20020;-66
2024/04/11 10:21:12;;;;;;;3.00;2.90;;;;;;;24.65;28.16;97794.47;5301415;26;20002;-66
2024/04/11 10:23:39;;;;;;;3.05;2.95;;;;;;;24.53;28.73;97762.00;5301784;27;20350;-64
2024/04/11 10:26:14;;;;;;;3.20;3.10;;;;;;;24.90;29.20;97806.78;5301687;26;20075;-66
2024/04/11 10:28:43;;;;;;;2.92;2.83;;;;;;;24.84;28.78;97740.53;5300376;27;20274;-67
2024/04/11 10:31:12;;;;;;;3.13;3.03;;;;;;;25.09;28.15;97739.81;5300279;27;20596;-62
2024/04/11 10:33:53;;;;;;;3.17;3.08;;;;;;;24.81;28.55;97751.97;5301016;27;20006;-62
2024/04/11 10:36:21;;;;;;;2.70;2.60;;;;;;;24.55;28.90;97858.69;5300023;27;20006;-62
2024/04/11 10:38:57;;;;;;;3.08;2.97;;;;;;;24.72;28.47;97794.34;5302123;26;19998;-66
2024/04/11 10:41:26;;;;;;;3.40;3.30;;;;;;;24.54;28.96;97799.63;5299192;27;20056;-62
2024/04/11 10:43:55;;;;;;;2.80;2.70;;;;;;;24.48;29.19;97762.56;5289803;26;20021;-65
2024/04/11 10:46:23;;;;;;;2.72;2.63;;;;;;;23.46;30.10;97730.25;5297143;27;20251;-65
2024/04/11 10:48:56;;;;;;;2.90;2.80;;;;;;;23.36;30.23;97816.16;5311611;26;20434;-66
2024/04/11 10:51:23;;;;;;;2.72;2.63;;;;;;;23.22;30.56;97755.00;5298541;27;20006;-65
2024/04/11 10:54:11;;;;;;;2.60;2.50;;;;;;;24.15;29.55;97752.50;5300645;26;20029;-64
2024/04/11 10:56:43;;;;;;;2.97;2.88;;;;;;;24.44;28.93;97772.38;5298489;27;20437;-69
2024/04/11 10:59:26;;;;;;;3.03;2.92;;;;;;;24.23;28.78;97759.56;5299111;27;20025;-61
2024/04/11 11:02:08;;;;;;;2.85;2.75;;;;;;;24.45;28.41;97723.78;5283154;27;20017;-69
2024/04/11 11:04:43;;;;;;;3.03;2.92;;;;;;;24.42;28.48;97679.31;5300301;26;20013;-67
2024/04/11 11:07:10;;;;;;;3.03;2.92;;;;;;;25.07;28.03;97754.44;5301352;27;20011;-70
2024/04/11 11:09:45;;;;;;;3.30;3.20;;;;;;;24.77;28.36;97752.06;5300209;27;20016;-73
2024/04/11 11:12:15;;;;;;;3.08;2.97;;;;;;;25.25;28.02;97783.09;5327336;26;20012;-64
2024/04/11 11:14:43;;;;;;;3.20;3.10;;;;;;;25.34;28.65;97793.03;5300696;26;20549;-63
2024/04/11 11:17:20;;;;;;;3.03;2.92;;;;;;;24.49;29.26;97741.47;5300799;26;20425;-64
2024/04/11 11:19:51;;;;;;;2.90;2.80;;;;;;;24.74;29.55;97792.63;5298799;27;20385;-61
2024/04/11 11:22:29;;;;;;;2.97;2.88;;;;;;;24.98;29.92;97794.00;5299544;26;20001;-63
2024/04/11 11:25:00;;;;;;;3.00;2.90;;;;;;;25.59;29.41;97785.34;5297974;27;20057;-63
2024/04/11 11:27:31;;;;;;;3.00;2.90;;;;;;;25.52;28.98;97802.59;5299212;27;20912;-60
2024/04/11 11:29:59;;;;;;;3.10;3.00;;;;;;;23.71;28.72;97586.22;5299702;26;20013;-62
2024/04/11 11:32:32;;;;;;;2.75;2.65;;;;;;;25.36;29.04;97794.16;5315250;26;20013;-64
2024/04/11 11:35:00;;;;;;;3.25;3.15;;;;;;;25.60;27.95;97757.75;5301544;26;20791;-66
2024/04/11 11:37:31;;;;;;;3.05;2.95;;;;;;;26.08;28.16;97788.72;5287894;26;20001;-70
2024/04/11 11:40:37;;;;;;;3.25;3.15;;;;;;;26.37;27.79;97783.66;5305981;26;20016;-68
2024/04/11 11:42:52;;;;;;;3.35;3.25;;;;;;;26.61;27.14;97782.81;5301851;26;20012;-64
2024/04/11 11:45:27;;;;;;;3.47;3.38;;;;;;;26.63;27.43;97785.22;5293736;26;20057;-68
2024/04/11 11:47:57;;;;;;;3.10;3.00;;;;;;;25.54;28.94;97770.94;5291747;27;20006;-69
2024/04/11 11:50:35;;;;;;;3.35;3.25;;;;;;;25.58;27.83;97782.94;5295027;27;20024;-67
2024/04/11 11:55:55;;;;;;;3.35;3.25;;;;;;;25.57;28.39;97758.66;5297869;26;20431;-66